Zenken Maru — JG5556 — position and weather

sailwx.info

Track history (hours):
 
Tides and Currents Weather Stations Pressure Air Temp Water Temp Dewpoint Dewpoint Depression Visibility Wind Speed Wind Dir Waves Ship Positions

Zenken Maru

Last reported at 2015-May-25 19:31 UTC. Time now 2015-May-25 19:40 UTC.
Position N 35°21' E 139°41'.

Length 98 m; draft 7.2 m.

Type: Cargo ship. MMSI: 431100955.

Date/timePositionNaut miles runAvg speedWind from/ knotsBaromVisibWave heightAir tempDewpointWater temp
2015-May-25 19:31N 35°21' E 139°41'0 0.0
2015-May-25 18:31N 35°21' E 139°41'0 0.0
2015-May-25 17:31N 35°21' E 139°41'0 0.0
2015-May-25 16:31N 35°21' E 139°41'0 0.0
2015-May-25 15:31N 35°21' E 139°41'0 0.0
2015-May-25 14:31N 35°21' E 139°41'0 0.0
2015-May-25 13:31N 35°21' E 139°41'0 0.0
2015-May-25 12:31N 35°21' E 139°41'0 0.0
2015-May-25 11:31N 35°21' E 139°41'0 0.1
2015-May-25 10:31N 35°21' E 139°41'0 0.0
2015-May-25 09:31N 35°21' E 139°41'0 0.0
2015-May-25 08:31N 35°21' E 139°41'0 0.0
2015-May-25 07:31N 35°21' E 139°41'3 3.1
2015-May-25 06:33N 35°23' E 139°39'0 0.0
2015-May-25 05:33N 35°23' E 139°39'0 0.0
2015-May-25 04:33N 35°23' E 139°39'0 0.0
2015-May-25 03:33N 35°23' E 139°39'0 0.0
2015-May-25 02:33N 35°23' E 139°39'0 0.0
2015-May-25 01:33N 35°23' E 139°39'0 0.0
2015-May-25 00:33N 35°23' E 139°39'0 0.0
2015-May-24 23:33N 35°23' E 139°39'0 0.0
2015-May-24 22:33N 35°23' E 139°39'0 0.1
2015-May-24 21:33N 35°23' E 139°39'3 2.8
2015-May-24 20:33N 35°21' E 139°41'0 0.0
2015-May-24 19:31N 35°21' E 139°41'0 0.0
2015-May-24 18:31N 35°21' E 139°41'0 0.0
2015-May-24 17:31N 35°21' E 139°41'0 0.0
2015-May-24 16:31N 35°21' E 139°41'0 0.0
2015-May-24 15:31N 35°21' E 139°41'0 0.0
2015-May-24 14:31N 35°21' E 139°41'0 0.0
2015-May-24 13:31N 35°21' E 139°41'0 0.0
2015-May-24 12:31N 35°21' E 139°41'0 0.0
2015-May-24 11:31N 35°21' E 139°41'0 0.1
2015-May-24 10:31N 35°21' E 139°41'0 0.0
2015-May-24 09:31N 35°21' E 139°41'0 0.1
2015-May-24 08:31N 35°21' E 139°41'0 0.0
2015-May-24 07:31N 35°21' E 139°41'0 0.0
2015-May-24 06:31N 35°21' E 139°41'0 0.0
2015-May-24 05:31N 35°21' E 139°41'0 0.0
2015-May-24 04:31N 35°21' E 139°41'0 0.0
2015-May-24 03:31N 35°21' E 139°41'0 0.0
2015-May-24 02:31N 35°21' E 139°41'0 0.0
2015-May-24 01:31N 35°21' E 139°41'0 0.0
2015-May-24 00:31N 35°21' E 139°41'0 0.1
2015-May-23 23:28N 35°21' E 139°41'0 0.1
2015-May-23 22:31N 35°21' E 139°41'0 0.1
2015-May-23 21:31N 35°21' E 139°41'0 0.0
2015-May-23 20:31N 35°21' E 139°41'0 0.0
2015-May-23 19:33N 35°21' E 139°41'9 9.0
2015-May-23 18:33N 35°13' E 139°47'1212.3
2015-May-23 17:33N 35°01' E 139°44'1211.7
2015-May-23 16:30N 34°49' E 139°48'1412.0
2015-May-23 15:21N 34°37' E 139°56'2111.9
2015-May-23 13:32N 34°18' E 140°07'46 1.7
2015-May-22 09:33N 34°60' E 139°43'1111.2
2015-May-22 08:32N 35°11' E 139°46'1010.1
2015-May-22 07:33N 35°20' E 139°42'4 3.9
2015-May-22 06:33N 35°23' E 139°39'0 0.0
2015-May-22 05:33N 35°23' E 139°39'0 0.0
2015-May-22 04:33N 35°23' E 139°39'0 0.0
2015-May-22 03:30N 35°23' E 139°39'0 0.0
2015-May-22 02:33N 35°23' E 139°39'0 0.0
2015-May-22 01:33N 35°23' E 139°39'0 0.0
2015-May-22 00:33N 35°23' E 139°39'0 0.0
2015-May-21 23:33N 35°23' E 139°39'0 0.1
2015-May-21 22:33N 35°23' E 139°39'6 6.4
2015-May-21 21:33N 35°18' E 139°44'10 9.7
2015-May-21 20:33N 35°09' E 139°46'7 7.3
2015-May-21 19:33N 35°02' E 139°44'8 7.3
2015-May-21 18:31N 34°54' E 139°45'7 7.4
2015-May-21 17:30N 34°47' E 139°49'10 6.8
2015-May-21 16:04N 34°39' E 139°55'23 9.1
2015-May-21 13:33N 34°18' E 140°08'41 1.4
2015-May-20 08:33N 34°55' E 139°45'1110.7
2015-May-20 07:33N 35°06' E 139°45'1110.8
2015-May-20 06:33N 35°17' E 139°45'5 5.1
2015-May-20 05:33N 35°21' E 139°41'0 0.0
2015-May-20 04:33N 35°21' E 139°41'0 0.0
2015-May-20 03:33N 35°21' E 139°41'0 0.0
2015-May-20 02:33N 35°21' E 139°41'0 0.0
2015-May-20 01:30N 35°21' E 139°41'0 0.0
2015-May-20 00:33N 35°21' E 139°41'0 0.0
2015-May-19 23:33N 35°21' E 139°41'0 0.0
2015-May-19 22:33N 35°21' E 139°41'0 0.0
2015-May-19 21:33N 35°21' E 139°41'0 0.0
2015-May-19 20:33N 35°21' E 139°41'0 0.1
2015-May-19 19:33N 35°21' E 139°41'0 0.0
2015-May-19 18:33N 35°21' E 139°41'0 0.0
2015-May-19 17:33N 35°21' E 139°41'0 0.0
2015-May-19 16:33N 35°21' E 139°41'0 0.1
2015-May-19 15:33N 35°21' E 139°41'0 0.1
2015-May-19 14:33N 35°21' E 139°41'0 0.0
2015-May-19 13:33N 35°21' E 139°41'0 0.0
2015-May-19 12:33N 35°21' E 139°41'0 0.0
2015-May-19 11:33N 35°21' E 139°41'0 0.1
2015-May-19 10:33N 35°21' E 139°41'0 0.0
2015-May-19 09:33N 35°21' E 139°41'0 0.0
2015-May-19 08:33N 35°21' E 139°41'0 0.1
2015-May-19 07:33N 35°21' E 139°41'0 0.0
2015-May-19 06:33N 35°21' E 139°41'0 0.0
2015-May-19 05:30N 35°21' E 139°41'3 3.1
2015-May-19 04:33N 35°23' E 139°39'0 0.1
2015-May-19 03:33N 35°23' E 139°39'0 0.0
2015-May-19 02:33N 35°23' E 139°39'0 0.0
2015-May-19 01:33N 35°23' E 139°39'0 0.0
2015-May-19 00:27N 35°23' E 139°39'0 0.0
2015-May-18 23:33N 35°23' E 139°39'0 0.3
2015-May-18 22:33N 35°23' E 139°39'3 2.8
2015-May-18 21:34N 35°21' E 139°41'0 0.0
2015-May-18 20:34N 35°21' E 139°41'0 0.0
2015-May-18 19:34N 35°21' E 139°41'0 0.0
2015-May-18 18:34N 35°21' E 139°41'0 0.0
2015-May-18 17:34N 35°21' E 139°41'0 0.0
2015-May-18 16:34N 35°21' E 139°41'0 0.0
2015-May-18 15:34N 35°21' E 139°41'0 0.0
2015-May-18 14:31N 35°21' E 139°41'0 0.0
2015-May-18 13:34N 35°21' E 139°41'0 0.1
2015-May-18 12:34N 35°21' E 139°41'0 0.1
2015-May-18 11:34N 35°21' E 139°41'0 0.0
2015-May-18 10:34N 35°21' E 139°41'0 0.0
2015-May-18 09:31N 35°21' E 139°41'0 0.1
2015-May-18 08:34N 35°21' E 139°41'0 0.0
2015-May-18 07:34N 35°21' E 139°41'0 0.1
2015-May-18 06:34N 35°21' E 139°41'0 0.0
2015-May-18 05:34N 35°21' E 139°41'0 0.0
2015-May-18 04:34N 35°21' E 139°41'0 0.0
2015-May-18 03:34N 35°21' E 139°41'0 0.0
2015-May-18 02:34N 35°21' E 139°41'0 0.1
2015-May-18 01:34N 35°21' E 139°41'0 0.0
2015-May-18 00:31N 35°21' E 139°41'0 0.0
2015-May-17 23:33N 35°21' E 139°41'0 0.1
2015-May-17 22:34N 35°21' E 139°41'0 0.1
2015-May-17 21:33N 35°21' E 139°41'0 0.1
2015-May-17 20:34N 35°21' E 139°41'0 0.0
2015-May-17 19:33N 35°21' E 139°41'0 0.1
2015-May-17 18:33N 35°21' E 139°41'0 0.0
2015-May-17 17:34N 35°21' E 139°41'0 0.0
2015-May-17 16:33N 35°21' E 139°41'0 0.0
2015-May-17 15:33N 35°21' E 139°41'0 0.0
2015-May-17 14:33N 35°21' E 139°41'0 0.0
2015-May-17 13:33N 35°21' E 139°41'0 0.0
2015-May-17 12:33N 35°21' E 139°41'0 0.1
2015-May-17 11:33N 35°21' E 139°41'0 0.1
2015-May-17 10:33N 35°21' E 139°41'0 0.0
2015-May-17 09:33N 35°21' E 139°41'0 0.1
2015-May-17 08:33N 35°21' E 139°41'0 0.1
2015-May-17 07:33N 35°21' E 139°41'1 1.4
2015-May-17 06:33N 35°22' E 139°41'2 1.6
2015-May-17 05:31N 35°23' E 139°39'0 0.1
2015-May-17 04:31N 35°23' E 139°39'0 0.1
2015-May-17 03:31N 35°23' E 139°39'0 0.1
2015-May-17 02:31N 35°23' E 139°39'3 3.1
2015-May-17 01:32N 35°21' E 139°41'0 0.0
2015-May-17 00:32N 35°21' E 139°41'0 0.1
2015-May-16 23:32N 35°21' E 139°41'0 0.0
2015-May-16 22:32N 35°21' E 139°41'0 0.0
2015-May-16 21:32N 35°21' E 139°41'0 0.0
2015-May-16 20:32N 35°21' E 139°41'0 0.0
2015-May-16 19:32N 35°21' E 139°41'0 0.1
2015-May-16 18:32N 35°21' E 139°41'0 0.0
2015-May-16 17:29N 35°21' E 139°41'0 0.1
2015-May-16 16:32N 35°21' E 139°41'0 0.0
2015-May-16 15:32N 35°21' E 139°41'0 0.0
2015-May-16 14:29N 35°21' E 139°41'0 0.0
2015-May-16 13:32N 35°21' E 139°41'0 0.1
2015-May-16 12:32N 35°21' E 139°41'0 0.0
2015-May-16 11:32N 35°21' E 139°41'0 0.0
2015-May-16 10:32N 35°21' E 139°41'0 0.0
2015-May-16 09:32N 35°21' E 139°41'0 0.0
2015-May-16 08:32N 35°21' E 139°41'0 0.0
2015-May-16 07:32N 35°21' E 139°41'0 0.0
2015-May-16 06:32N 35°21' E 139°41'0 0.1
2015-May-16 05:32N 35°21' E 139°41'0 0.0
2015-May-16 04:32N 35°21' E 139°41'3 3.0
2015-May-16 03:32N 35°23' E 139°39'0 0.0
2015-May-16 02:32N 35°23' E 139°39'0 0.0
2015-May-16 01:32N 35°23' E 139°39'0 0.0
2015-May-16 00:32N 35°23' E 139°39'0 0.0
2015-May-15 23:32N 35°23' E 139°39'0 0.2
2015-May-15 22:34N 35°23' E 139°39'7 6.8
2015-May-15 21:34N 35°18' E 139°44'9 9.4
2015-May-15 20:34N 35°09' E 139°46'8 7.9
2015-May-15 19:33N 35°01' E 139°44'  
Track history (hours):
 
Tides and Currents Weather Stations Pressure Air Temp Water Temp Dewpoint Dewpoint Depression Visibility Wind Speed Wind Dir Waves Ship Positions

Zenken Maru

Last reported at 2015-May-25 19:31 UTC. Time now 2015-May-25 19:40 UTC.
Position N 35°21' E 139°41'.

Length 98 m; draft 7.2 m.

Type: Cargo ship. MMSI: 431100955.

Date/timePositionNaut miles runAvg speedWind from/ knotsBaromVisibWave heightAir tempDewpointWater temp
2015-May-25 19:31N 35°21' E 139°41'0 0.0
2015-May-25 18:31N 35°21' E 139°41'0 0.0
2015-May-25 17:31N 35°21' E 139°41'0 0.0
2015-May-25 16:31N 35°21' E 139°41'0 0.0
2015-May-25 15:31N 35°21' E 139°41'0 0.0
2015-May-25 14:31N 35°21' E 139°41'0 0.0
2015-May-25 13:31N 35°21' E 139°41'0 0.0
2015-May-25 12:31N 35°21' E 139°41'0 0.0
2015-May-25 11:31N 35°21' E 139°41'0 0.1
2015-May-25 10:31N 35°21' E 139°41'0 0.0
2015-May-25 09:31N 35°21' E 139°41'0 0.0
2015-May-25 08:31N 35°21' E 139°41'0 0.0
2015-May-25 07:31N 35°21' E 139°41'3 3.1
2015-May-25 06:33N 35°23' E 139°39'0 0.0
2015-May-25 05:33N 35°23' E 139°39'0 0.0
2015-May-25 04:33N 35°23' E 139°39'0 0.0
2015-May-25 03:33N 35°23' E 139°39'0 0.0
2015-May-25 02:33N 35°23' E 139°39'0 0.0
2015-May-25 01:33N 35°23' E 139°39'0 0.0
2015-May-25 00:33N 35°23' E 139°39'0 0.0
2015-May-24 23:33N 35°23' E 139°39'0 0.0
2015-May-24 22:33N 35°23' E 139°39'0 0.1
2015-May-24 21:33N 35°23' E 139°39'3 2.8
2015-May-24 20:33N 35°21' E 139°41'0 0.0
2015-May-24 19:31N 35°21' E 139°41'0 0.0
2015-May-24 18:31N 35°21' E 139°41'0 0.0
2015-May-24 17:31N 35°21' E 139°41'0 0.0
2015-May-24 16:31N 35°21' E 139°41'0 0.0
2015-May-24 15:31N 35°21' E 139°41'0 0.0
2015-May-24 14:31N 35°21' E 139°41'0 0.0
2015-May-24 13:31N 35°21' E 139°41'0 0.0
2015-May-24 12:31N 35°21' E 139°41'0 0.0
2015-May-24 11:31N 35°21' E 139°41'0 0.1
2015-May-24 10:31N 35°21' E 139°41'0 0.0
2015-May-24 09:31N 35°21' E 139°41'0 0.1
2015-May-24 08:31N 35°21' E 139°41'0 0.0
2015-May-24 07:31N 35°21' E 139°41'0 0.0
2015-May-24 06:31N 35°21' E 139°41'0 0.0
2015-May-24 05:31N 35°21' E 139°41'0 0.0
2015-May-24 04:31N 35°21' E 139°41'0 0.0
2015-May-24 03:31N 35°21' E 139°41'0 0.0
2015-May-24 02:31N 35°21' E 139°41'0 0.0
2015-May-24 01:31N 35°21' E 139°41'0 0.0
2015-May-24 00:31N 35°21' E 139°41'0 0.1
2015-May-23 23:28N 35°21' E 139°41'0 0.1
2015-May-23 22:31N 35°21' E 139°41'0 0.1
2015-May-23 21:31N 35°21' E 139°41'0 0.0
2015-May-23 20:31N 35°21' E 139°41'0 0.0
2015-May-23 19:33N 35°21' E 139°41'9 9.0
2015-May-23 18:33N 35°13' E 139°47'1212.3
2015-May-23 17:33N 35°01' E 139°44'1211.7
2015-May-23 16:30N 34°49' E 139°48'1412.0
2015-May-23 15:21N 34°37' E 139°56'2111.9
2015-May-23 13:32N 34°18' E 140°07'46 1.7
2015-May-22 09:33N 34°60' E 139°43'1111.2
2015-May-22 08:32N 35°11' E 139°46'1010.1
2015-May-22 07:33N 35°20' E 139°42'4 3.9
2015-May-22 06:33N 35°23' E 139°39'0 0.0
2015-May-22 05:33N 35°23' E 139°39'0 0.0
2015-May-22 04:33N 35°23' E 139°39'0 0.0
2015-May-22 03:30N 35°23' E 139°39'0 0.0
2015-May-22 02:33N 35°23' E 139°39'0 0.0
2015-May-22 01:33N 35°23' E 139°39'0 0.0
2015-May-22 00:33N 35°23' E 139°39'0 0.0
2015-May-21 23:33N 35°23' E 139°39'0 0.1
2015-May-21 22:33N 35°23' E 139°39'6 6.4
2015-May-21 21:33N 35°18' E 139°44'10 9.7
2015-May-21 20:33N 35°09' E 139°46'7 7.3
2015-May-21 19:33N 35°02' E 139°44'8 7.3
2015-May-21 18:31N 34°54' E 139°45'7 7.4
2015-May-21 17:30N 34°47' E 139°49'10 6.8
2015-May-21 16:04N 34°39' E 139°55'23 9.1
2015-May-21 13:33N 34°18' E 140°08'41 1.4
2015-May-20 08:33N 34°55' E 139°45'1110.7
2015-May-20 07:33N 35°06' E 139°45'1110.8
2015-May-20 06:33N 35°17' E 139°45'5 5.1
2015-May-20 05:33N 35°21' E 139°41'0 0.0
2015-May-20 04:33N 35°21' E 139°41'0 0.0
2015-May-20 03:33N 35°21' E 139°41'0 0.0
2015-May-20 02:33N 35°21' E 139°41'0 0.0
2015-May-20 01:30N 35°21' E 139°41'0 0.0
2015-May-20 00:33N 35°21' E 139°41'0 0.0
2015-May-19 23:33N 35°21' E 139°41'0 0.0
2015-May-19 22:33N 35°21' E 139°41'0 0.0
2015-May-19 21:33N 35°21' E 139°41'0 0.0
2015-May-19 20:33N 35°21' E 139°41'0 0.1
2015-May-19 19:33N 35°21' E 139°41'0 0.0
2015-May-19 18:33N 35°21' E 139°41'0 0.0
2015-May-19 17:33N 35°21' E 139°41'0 0.0
2015-May-19 16:33N 35°21' E 139°41'0 0.1
2015-May-19 15:33N 35°21' E 139°41'0 0.1
2015-May-19 14:33N 35°21' E 139°41'0 0.0
2015-May-19 13:33N 35°21' E 139°41'0 0.0
2015-May-19 12:33N 35°21' E 139°41'0 0.0
2015-May-19 11:33N 35°21' E 139°41'0 0.1
2015-May-19 10:33N 35°21' E 139°41'0 0.0
2015-May-19 09:33N 35°21' E 139°41'0 0.0
2015-May-19 08:33N 35°21' E 139°41'0 0.1
2015-May-19 07:33N 35°21' E 139°41'0 0.0
2015-May-19 06:33N 35°21' E 139°41'0 0.0
2015-May-19 05:30N 35°21' E 139°41'3 3.1
2015-May-19 04:33N 35°23' E 139°39'0 0.1
2015-May-19 03:33N 35°23' E 139°39'0 0.0
2015-May-19 02:33N 35°23' E 139°39'0 0.0
2015-May-19 01:33N 35°23' E 139°39'0 0.0
2015-May-19 00:27N 35°23' E 139°39'0 0.0
2015-May-18 23:33N 35°23' E 139°39'0 0.3
2015-May-18 22:33N 35°23' E 139°39'3 2.8
2015-May-18 21:34N 35°21' E 139°41'0 0.0
2015-May-18 20:34N 35°21' E 139°41'0 0.0
2015-May-18 19:34N 35°21' E 139°41'0 0.0
2015-May-18 18:34N 35°21' E 139°41'0 0.0
2015-May-18 17:34N 35°21' E 139°41'0 0.0
2015-May-18 16:34N 35°21' E 139°41'0 0.0
2015-May-18 15:34N 35°21' E 139°41'0 0.0
2015-May-18 14:31N 35°21' E 139°41'0 0.0
2015-May-18 13:34N 35°21' E 139°41'0 0.1
2015-May-18 12:34N 35°21' E 139°41'0 0.1
2015-May-18 11:34N 35°21' E 139°41'0 0.0
2015-May-18 10:34N 35°21' E 139°41'0 0.0
2015-May-18 09:31N 35°21' E 139°41'0 0.1
2015-May-18 08:34N 35°21' E 139°41'0 0.0
2015-May-18 07:34N 35°21' E 139°41'0 0.1
2015-May-18 06:34N 35°21' E 139°41'0 0.0
2015-May-18 05:34N 35°21' E 139°41'0 0.0
2015-May-18 04:34N 35°21' E 139°41'0 0.0
2015-May-18 03:34N 35°21' E 139°41'0 0.0
2015-May-18 02:34N 35°21' E 139°41'0 0.1
2015-May-18 01:34N 35°21' E 139°41'0 0.0
2015-May-18 00:31N 35°21' E 139°41'0 0.0
2015-May-17 23:33N 35°21' E 139°41'0 0.1
2015-May-17 22:34N 35°21' E 139°41'0 0.1
2015-May-17 21:33N 35°21' E 139°41'0 0.1
2015-May-17 20:34N 35°21' E 139°41'0 0.0
2015-May-17 19:33N 35°21' E 139°41'0 0.1
2015-May-17 18:33N 35°21' E 139°41'0 0.0
2015-May-17 17:34N 35°21' E 139°41'0 0.0
2015-May-17 16:33N 35°21' E 139°41'0 0.0
2015-May-17 15:33N 35°21' E 139°41'0 0.0
2015-May-17 14:33N 35°21' E 139°41'0 0.0
2015-May-17 13:33N 35°21' E 139°41'0 0.0
2015-May-17 12:33N 35°21' E 139°41'0 0.1
2015-May-17 11:33N 35°21' E 139°41'0 0.1
2015-May-17 10:33N 35°21' E 139°41'0 0.0
2015-May-17 09:33N 35°21' E 139°41'0 0.1
2015-May-17 08:33N 35°21' E 139°41'0 0.1
2015-May-17 07:33N 35°21' E 139°41'1 1.4
2015-May-17 06:33N 35°22' E 139°41'2 1.6
2015-May-17 05:31N 35°23' E 139°39'0 0.1
2015-May-17 04:31N 35°23' E 139°39'0 0.1
2015-May-17 03:31N 35°23' E 139°39'0 0.1
2015-May-17 02:31N 35°23' E 139°39'3 3.1
2015-May-17 01:32N 35°21' E 139°41'0 0.0
2015-May-17 00:32N 35°21' E 139°41'0 0.1
2015-May-16 23:32N 35°21' E 139°41'0 0.0
2015-May-16 22:32N 35°21' E 139°41'0 0.0
2015-May-16 21:32N 35°21' E 139°41'0 0.0
2015-May-16 20:32N 35°21' E 139°41'0 0.0
2015-May-16 19:32N 35°21' E 139°41'0 0.1
2015-May-16 18:32N 35°21' E 139°41'0 0.0
2015-May-16 17:29N 35°21' E 139°41'0 0.1
2015-May-16 16:32N 35°21' E 139°41'0 0.0
2015-May-16 15:32N 35°21' E 139°41'0 0.0
2015-May-16 14:29N 35°21' E 139°41'0 0.0
2015-May-16 13:32N 35°21' E 139°41'0 0.1
2015-May-16 12:32N 35°21' E 139°41'0 0.0
2015-May-16 11:32N 35°21' E 139°41'0 0.0
2015-May-16 10:32N 35°21' E 139°41'0 0.0
2015-May-16 09:32N 35°21' E 139°41'0 0.0
2015-May-16 08:32N 35°21' E 139°41'0 0.0
2015-May-16 07:32N 35°21' E 139°41'0 0.0
2015-May-16 06:32N 35°21' E 139°41'0 0.1
2015-May-16 05:32N 35°21' E 139°41'0 0.0
2015-May-16 04:32N 35°21' E 139°41'3 3.0
2015-May-16 03:32N 35°23' E 139°39'0 0.0
2015-May-16 02:32N 35°23' E 139°39'0 0.0
2015-May-16 01:32N 35°23' E 139°39'0 0.0
2015-May-16 00:32N 35°23' E 139°39'0 0.0
2015-May-15 23:32N 35°23' E 139°39'0 0.2
2015-May-15 22:34N 35°23' E 139°39'7 6.8
2015-May-15 21:34N 35°18' E 139°44'9 9.4
2015-May-15 20:34N 35°09' E 139°46'8 7.9
2015-May-15 19:33N 35°01' E 139°44'  

Dump ship's entire track history